sensor_id;sensor_type;location;lat;lon;timestamp;P1;durP1;ratioP1;P2;durP2;ratioP2
23782;SDS011;12071;50.850;4.446;2023-06-14T00:00:39;10.57;;;6.28;;
23782;SDS011;12071;50.850;4.446;2023-06-14T00:03:09;9.70;;;6.60;;
23782;SDS011;12071;50.850;4.446;2023-06-14T00:05:36;10.40;;;6.15;;
23782;SDS011;12071;50.850;4.446;2023-06-14T00:08:08;10.82;;;6.97;;
23782;SDS011;12071;50.850;4.446;2023-06-14T00:10:34;10.05;;;6.07;;
23782;SDS011;12071;50.850;4.446;2023-06-14T00:13:03;9.00;;;6.10;;
23782;SDS011;12071;50.850;4.446;2023-06-14T00:15:30;8.80;;;6.03;;
23782;SDS011;12071;50.850;4.446;2023-06-14T00:17:56;7.65;;;6.05;;
23782;SDS011;12071;50.850;4.446;2023-06-14T00:20:25;7.60;;;5.22;;
23782;SDS011;12071;50.850;4.446;2023-06-14T00:22:52;7.90;;;6.15;;
23782;SDS011;12071;50.850;4.446;2023-06-14T00:25:19;11.63;;;5.85;;
23782;SDS011;12071;50.850;4.446;2023-06-14T00:27:44;8.00;;;6.05;;
23782;SDS011;12071;50.850;4.446;2023-06-14T00:30:11;11.93;;;6.18;;
23782;SDS011;12071;50.850;4.446;2023-06-14T00:32:37;10.80;;;6.53;;
23782;SDS011;12071;50.850;4.446;2023-06-14T00:35:02;10.10;;;6.40;;
23782;SDS011;12071;50.850;4.446;2023-06-14T00:37:28;7.22;;;5.82;;
23782;SDS011;12071;50.850;4.446;2023-06-14T00:39:54;8.80;;;5.95;;
23782;SDS011;12071;50.850;4.446;2023-06-14T00:42:23;10.55;;;6.13;;
23782;SDS011;12071;50.850;4.446;2023-06-14T00:44:49;7.68;;;5.68;;
23782;SDS011;12071;50.850;4.446;2023-06-14T00:47:15;9.20;;;6.00;;
23782;SDS011;12071;50.850;4.446;2023-06-14T00:49:41;7.93;;;5.72;;
23782;SDS011;12071;50.850;4.446;2023-06-14T00:52:07;11.70;;;6.07;;
23782;SDS011;12071;50.850;4.446;2023-06-14T00:54:37;12.93;;;6.70;;
23782;SDS011;12071;50.850;4.446;2023-06-14T00:57:03;8.82;;;6.60;;
23782;SDS011;12071;50.850;4.446;2023-06-14T00:59:29;8.32;;;6.32;;
23782;SDS011;12071;50.850;4.446;2023-06-14T01:01:55;7.28;;;6.55;;
23782;SDS011;12071;50.850;4.446;2023-06-14T01:04:20;7.25;;;6.07;;
23782;SDS011;12071;50.850;4.446;2023-06-14T01:06:59;9.23;;;6.25;;
23782;SDS011;12071;50.850;4.446;2023-06-14T01:09:54;9.93;;;6.20;;
23782;SDS011;12071;50.850;4.446;2023-06-14T01:13:27;7.70;;;5.93;;
23782;SDS011;12071;50.850;4.446;2023-06-14T01:15:48;9.50;;;6.30;;
23782;SDS011;12071;50.850;4.446;2023-06-14T01:18:16;9.00;;;6.20;;
23782;SDS011;12071;50.850;4.446;2023-06-14T01:20:43;9.23;;;5.88;;
23782;SDS011;12071;50.850;4.446;2023-06-14T01:23:16;11.07;;;6.50;;
23782;SDS011;12071;50.850;4.446;2023-06-14T01:25:42;8.13;;;6.25;;
23782;SDS011;12071;50.850;4.446;2023-06-14T01:28:09;8.40;;;6.10;;
23782;SDS011;12071;50.850;4.446;2023-06-14T01:30:40;9.25;;;6.63;;
23782;SDS011;12071;50.850;4.446;2023-06-14T01:33:21;10.32;;;6.35;;
23782;SDS011;12071;50.850;4.446;2023-06-14T01:35:48;8.80;;;6.43;;
23782;SDS011;12071;50.850;4.446;2023-06-14T01:38:20;11.40;;;6.72;;
23782;SDS011;12071;50.850;4.446;2023-06-14T01:40:48;10.05;;;6.25;;
23782;SDS011;12071;50.850;4.446;2023-06-14T01:43:16;9.63;;;6.40;;
23782;SDS011;12071;50.850;4.446;2023-06-14T01:45:42;7.90;;;6.60;;
23782;SDS011;12071;50.850;4.446;2023-06-14T01:48:10;11.38;;;6.53;;
23782;SDS011;12071;50.850;4.446;2023-06-14T01:50:37;10.30;;;6.40;;
23782;SDS011;12071;50.850;4.446;2023-06-14T01:53:03;8.07;;;6.78;;
23782;SDS011;12071;50.850;4.446;2023-06-14T01:55:32;9.05;;;6.90;;
23782;SDS011;12071;50.850;4.446;2023-06-14T01:58:02;7.90;;;6.45;;
23782;SDS011;12071;50.850;4.446;2023-06-14T02:00:28;10.68;;;6.40;;
23782;SDS011;12071;50.850;4.446;2023-06-14T02:02:54;7.38;;;6.30;;
23782;SDS011;12071;50.850;4.446;2023-06-14T02:05:19;11.50;;;6.78;;
23782;SDS011;12071;50.850;4.446;2023-06-14T02:07:45;10.88;;;6.75;;
23782;SDS011;12071;50.850;4.446;2023-06-14T02:10:11;8.02;;;6.53;;
23782;SDS011;12071;50.850;4.446;2023-06-14T02:12:37;10.63;;;6.65;;
23782;SDS011;12071;50.850;4.446;2023-06-14T02:15:02;8.73;;;6.78;;
23782;SDS011;12071;50.850;4.446;2023-06-14T02:17:29;9.75;;;6.43;;
23782;SDS011;12071;50.850;4.446;2023-06-14T02:19:54;7.40;;;6.65;;
23782;SDS011;12071;50.850;4.446;2023-06-14T02:22:22;12.02;;;6.68;;
23782;SDS011;12071;50.850;4.446;2023-06-14T02:24:48;10.48;;;6.95;;
23782;SDS011;12071;50.850;4.446;2023-06-14T02:27:13;9.20;;;6.78;;
23782;SDS011;12071;50.850;4.446;2023-06-14T02:29:39;14.30;;;7.18;;
23782;SDS011;12071;50.850;4.446;2023-06-14T02:32:05;12.35;;;6.53;;
23782;SDS011;12071;50.850;4.446;2023-06-14T02:34:32;9.23;;;6.80;;
23782;SDS011;12071;50.850;4.446;2023-06-14T02:36:59;10.30;;;7.03;;
23782;SDS011;12071;50.850;4.446;2023-06-14T02:39:24;14.10;;;7.03;;
23782;SDS011;12071;50.850;4.446;2023-06-14T02:41:50;11.63;;;7.10;;
23782;SDS011;12071;50.850;4.446;2023-06-14T02:44:17;16.15;;;7.25;;
23782;SDS011;12071;50.850;4.446;2023-06-14T02:46:44;13.32;;;7.95;;
23782;SDS011;12071;50.850;4.446;2023-06-14T02:49:10;13.23;;;6.85;;
23782;SDS011;12071;50.850;4.446;2023-06-14T02:51:36;12.05;;;7.40;;
23782;SDS011;12071;50.850;4.446;2023-06-14T02:54:02;11.50;;;6.88;;
23782;SDS011;12071;50.850;4.446;2023-06-14T02:56:28;17.27;;;7.68;;
23782;SDS011;12071;50.850;4.446;2023-06-14T02:58:54;11.73;;;7.40;;
23782;SDS011;12071;50.850;4.446;2023-06-14T03:01:19;14.65;;;7.53;;
23782;SDS011;12071;50.850;4.446;2023-06-14T03:03:46;8.57;;;6.97;;
23782;SDS011;12071;50.850;4.446;2023-06-14T03:06:12;9.60;;;6.88;;
23782;SDS011;12071;50.850;4.446;2023-06-14T03:08:38;10.02;;;7.32;;
23782;SDS011;12071;50.850;4.446;2023-06-14T03:11:08;11.75;;;7.38;;
23782;SDS011;12071;50.850;4.446;2023-06-14T03:13:34;17.02;;;7.40;;
23782;SDS011;12071;50.850;4.446;2023-06-14T03:16:00;14.50;;;7.50;;
23782;SDS011;12071;50.850;4.446;2023-06-14T03:18:29;19.05;;;7.50;;
23782;SDS011;12071;50.850;4.446;2023-06-14T03:20:56;10.88;;;7.40;;
23782;SDS011;12071;50.850;4.446;2023-06-14T03:23:23;11.65;;;7.53;;
23782;SDS011;12071;50.850;4.446;2023-06-14T03:25:50;11.32;;;7.07;;
23782;SDS011;12071;50.850;4.446;2023-06-14T03:28:16;14.60;;;8.20;;
23782;SDS011;12071;50.850;4.446;2023-06-14T03:30:42;14.80;;;8.48;;
23782;SDS011;12071;50.850;4.446;2023-06-14T03:33:07;9.43;;;7.20;;
23782;SDS011;12071;50.850;4.446;2023-06-14T03:35:33;14.88;;;7.47;;
23782;SDS011;12071;50.850;4.446;2023-06-14T03:37:59;13.25;;;7.90;;
23782;SDS011;12071;50.850;4.446;2023-06-14T03:40:25;21.95;;;7.85;;
23782;SDS011;12071;50.850;4.446;2023-06-14T03:42:53;13.10;;;8.05;;
23782;SDS011;12071;50.850;4.446;2023-06-14T03:45:19;12.98;;;8.32;;
23782;SDS011;12071;50.850;4.446;2023-06-14T03:47:45;13.32;;;8.23;;
23782;SDS011;12071;50.850;4.446;2023-06-14T03:50:11;15.38;;;7.82;;
23782;SDS011;12071;50.850;4.446;2023-06-14T03:52:37;11.50;;;7.65;;
23782;SDS011;12071;50.850;4.446;2023-06-14T03:55:03;11.65;;;8.02;;
23782;SDS011;12071;50.850;4.446;2023-06-14T03:57:29;14.00;;;8.50;;
23782;SDS011;12071;50.850;4.446;2023-06-14T03:59:55;15.75;;;8.40;;
23782;SDS011;12071;50.850;4.446;2023-06-14T04:02:21;20.27;;;7.70;;
23782;SDS011;12071;50.850;4.446;2023-06-14T04:04:47;12.93;;;8.15;;
23782;SDS011;12071;50.850;4.446;2023-06-14T04:07:13;16.27;;;8.63;;
23782;SDS011;12071;50.850;4.446;2023-06-14T04:09:39;10.98;;;7.65;;
23782;SDS011;12071;50.850;4.446;2023-06-14T04:12:06;13.88;;;7.95;;
23782;SDS011;12071;50.850;4.446;2023-06-14T04:14:33;14.70;;;8.68;;
23782;SDS011;12071;50.850;4.446;2023-06-14T04:16:59;23.65;;;8.45;;
23782;SDS011;12071;50.850;4.446;2023-06-14T04:19:25;13.82;;;8.40;;
23782;SDS011;12071;50.850;4.446;2023-06-14T04:21:51;18.73;;;8.57;;
23782;SDS011;12071;50.850;4.446;2023-06-14T04:24:17;22.20;;;8.20;;
23782;SDS011;12071;50.850;4.446;2023-06-14T04:26:43;14.73;;;7.85;;
23782;SDS011;12071;50.850;4.446;2023-06-14T04:29:10;19.83;;;8.70;;
23782;SDS011;12071;50.850;4.446;2023-06-14T04:31:39;18.08;;;8.05;;
23782;SDS011;12071;50.850;4.446;2023-06-14T04:34:05;14.02;;;8.52;;
23782;SDS011;12071;50.850;4.446;2023-06-14T04:36:35;20.30;;;8.70;;
23782;SDS011;12071;50.850;4.446;2023-06-14T04:39:04;14.95;;;9.10;;
23782;SDS011;12071;50.850;4.446;2023-06-14T04:41:29;15.73;;;8.93;;
23782;SDS011;12071;50.850;4.446;2023-06-14T04:44:00;20.33;;;9.13;;
23782;SDS011;12071;50.850;4.446;2023-06-14T04:46:28;19.98;;;9.45;;
23782;SDS011;12071;50.850;4.446;2023-06-14T04:48:55;14.43;;;8.70;;
23782;SDS011;12071;50.850;4.446;2023-06-14T04:51:21;20.75;;;9.32;;
23782;SDS011;12071;50.850;4.446;2023-06-14T04:53:57;12.35;;;8.27;;
23782;SDS011;12071;50.850;4.446;2023-06-14T04:56:23;17.70;;;8.80;;
23782;SDS011;12071;50.850;4.446;2023-06-14T04:58:50;21.75;;;8.73;;
23782;SDS011;12071;50.850;4.446;2023-06-14T05:01:17;16.90;;;8.48;;
23782;SDS011;12071;50.850;4.446;2023-06-14T05:03:43;19.60;;;8.40;;
23782;SDS011;12071;50.850;4.446;2023-06-14T05:06:10;15.77;;;9.02;;
23782;SDS011;12071;50.850;4.446;2023-06-14T05:08:36;20.85;;;9.27;;
23782;SDS011;12071;50.850;4.446;2023-06-14T05:11:02;18.33;;;9.10;;
23782;SDS011;12071;50.850;4.446;2023-06-14T05:13:28;22.52;;;8.48;;
23782;SDS011;12071;50.850;4.446;2023-06-14T05:15:54;17.20;;;8.75;;
23782;SDS011;12071;50.850;4.446;2023-06-14T05:18:19;16.52;;;8.55;;
23782;SDS011;12071;50.850;4.446;2023-06-14T05:20:45;14.95;;;8.60;;
23782;SDS011;12071;50.850;4.446;2023-06-14T05:23:11;19.92;;;9.25;;
23782;SDS011;12071;50.850;4.446;2023-06-14T05:25:41;15.05;;;8.38;;
23782;SDS011;12071;50.850;4.446;2023-06-14T05:28:10;14.73;;;8.93;;
23782;SDS011;12071;50.850;4.446;2023-06-14T05:30:37;23.15;;;8.48;;
23782;SDS011;12071;50.850;4.446;2023-06-14T05:33:04;16.30;;;8.70;;
23782;SDS011;12071;50.850;4.446;2023-06-14T05:35:29;19.15;;;8.85;;
23782;SDS011;12071;50.850;4.446;2023-06-14T05:37:55;20.23;;;8.93;;
23782;SDS011;12071;50.850;4.446;2023-06-14T05:40:21;16.02;;;9.13;;
23782;SDS011;12071;50.850;4.446;2023-06-14T05:42:46;18.88;;;8.82;;
23782;SDS011;12071;50.850;4.446;2023-06-14T05:45:12;15.23;;;8.43;;
23782;SDS011;12071;50.850;4.446;2023-06-14T05:47:39;15.48;;;8.05;;
23782;SDS011;12071;50.850;4.446;2023-06-14T05:50:05;18.35;;;8.48;;
23782;SDS011;12071;50.850;4.446;2023-06-14T05:52:31;12.90;;;8.57;;
23782;SDS011;12071;50.850;4.446;2023-06-14T05:54:57;15.27;;;8.65;;
23782;SDS011;12071;50.850;4.446;2023-06-14T05:57:23;21.85;;;8.90;;
23782;SDS011;12071;50.850;4.446;2023-06-14T05:59:48;17.52;;;8.05;;
23782;SDS011;12071;50.850;4.446;2023-06-14T06:02:15;17.02;;;8.90;;
23782;SDS011;12071;50.850;4.446;2023-06-14T06:04:41;19.02;;;8.52;;
23782;SDS011;12071;50.850;4.446;2023-06-14T06:07:07;20.17;;;8.52;;
23782;SDS011;12071;50.850;4.446;2023-06-14T06:09:33;17.63;;;8.18;;
23782;SDS011;12071;50.850;4.446;2023-06-14T06:11:59;19.88;;;8.32;;
23782;SDS011;12071;50.850;4.446;2023-06-14T06:14:24;14.57;;;8.73;;
23782;SDS011;12071;50.850;4.446;2023-06-14T06:16:50;11.35;;;8.32;;
23782;SDS011;12071;50.850;4.446;2023-06-14T06:19:17;18.00;;;8.10;;
23782;SDS011;12071;50.850;4.446;2023-06-14T06:39:50;10.65;;;8.02;;
23782;SDS011;12071;50.850;4.446;2023-06-14T06:42:16;10.57;;;7.25;;
23782;SDS011;12071;50.850;4.446;2023-06-14T06:44:42;11.48;;;7.57;;
23782;SDS011;12071;50.850;4.446;2023-06-14T06:47:07;11.15;;;7.82;;
23782;SDS011;12071;50.850;4.446;2023-06-14T06:49:34;12.20;;;8.45;;
23782;SDS011;12071;50.850;4.446;2023-06-14T06:52:04;10.70;;;7.47;;
23782;SDS011;12071;50.850;4.446;2023-06-14T06:54:31;16.65;;;7.07;;
23782;SDS011;12071;50.850;4.446;2023-06-14T06:56:57;9.55;;;7.40;;
23782;SDS011;12071;50.850;4.446;2023-06-14T06:59:23;14.50;;;7.90;;
23782;SDS011;12071;50.850;4.446;2023-06-14T07:01:48;9.48;;;6.85;;
23782;SDS011;12071;50.850;4.446;2023-06-14T07:04:14;10.98;;;7.05;;
23782;SDS011;12071;50.850;4.446;2023-06-14T07:06:41;10.90;;;7.72;;
23782;SDS011;12071;50.850;4.446;2023-06-14T07:09:07;14.57;;;7.13;;
23782;SDS011;12071;50.850;4.446;2023-06-14T07:11:37;10.60;;;7.40;;
23782;SDS011;12071;50.850;4.446;2023-06-14T07:14:03;10.43;;;6.85;;
23782;SDS011;12071;50.850;4.446;2023-06-14T07:16:28;11.95;;;6.78;;
23782;SDS011;12071;50.850;4.446;2023-06-14T07:18:55;11.95;;;6.25;;
23782;SDS011;12071;50.850;4.446;2023-06-14T07:21:20;12.18;;;6.78;;
23782;SDS011;12071;50.850;4.446;2023-06-14T07:23:46;9.77;;;5.97;;
23782;SDS011;12071;50.850;4.446;2023-06-14T07:26:12;8.93;;;6.22;;
23782;SDS011;12071;50.850;4.446;2023-06-14T07:28:38;13.63;;;7.63;;
23782;SDS011;12071;50.850;4.446;2023-06-14T07:31:03;9.98;;;6.47;;
23782;SDS011;12071;50.850;4.446;2023-06-14T07:33:29;10.45;;;6.45;;
23782;SDS011;12071;50.850;4.446;2023-06-14T07:35:55;12.05;;;7.00;;
23782;SDS011;12071;50.850;4.446;2023-06-14T07:38:20;9.52;;;6.57;;
23782;SDS011;12071;50.850;4.446;2023-06-14T07:40:46;11.23;;;6.88;;
23782;SDS011;12071;50.850;4.446;2023-06-14T07:43:12;11.88;;;7.00;;
23782;SDS011;12071;50.850;4.446;2023-06-14T07:45:37;7.82;;;6.70;;
23782;SDS011;12071;50.850;4.446;2023-06-14T07:48:03;16.88;;;7.10;;
23782;SDS011;12071;50.850;4.446;2023-06-14T07:50:29;10.55;;;6.90;;
23782;SDS011;12071;50.850;4.446;2023-06-14T07:52:55;15.35;;;6.80;;
23782;SDS011;12071;50.850;4.446;2023-06-14T07:55:21;11.85;;;6.93;;
23782;SDS011;12071;50.850;4.446;2023-06-14T07:57:50;14.05;;;7.55;;
23782;SDS011;12071;50.850;4.446;2023-06-14T08:00:16;15.05;;;6.97;;
23782;SDS011;12071;50.850;4.446;2023-06-14T08:02:43;11.38;;;6.90;;
23782;SDS011;12071;50.850;4.446;2023-06-14T08:05:09;9.68;;;6.50;;
23782;SDS011;12071;50.850;4.446;2023-06-14T08:07:39;10.95;;;6.35;;
23782;SDS011;12071;50.850;4.446;2023-06-14T08:10:05;12.55;;;7.18;;
23782;SDS011;12071;50.850;4.446;2023-06-14T08:12:32;15.05;;;7.00;;
23782;SDS011;12071;50.850;4.446;2023-06-14T08:14:58;12.35;;;6.80;;
23782;SDS011;12071;50.850;4.446;2023-06-14T08:17:24;11.48;;;6.78;;
23782;SDS011;12071;50.850;4.446;2023-06-14T08:19:50;14.80;;;7.05;;
23782;SDS011;12071;50.850;4.446;2023-06-14T08:22:15;13.65;;;7.05;;
23782;SDS011;12071;50.850;4.446;2023-06-14T08:24:43;12.63;;;7.22;;
23782;SDS011;12071;50.850;4.446;2023-06-14T08:27:09;12.25;;;6.82;;
23782;SDS011;12071;50.850;4.446;2023-06-14T08:29:35;15.30;;;6.80;;
23782;SDS011;12071;50.850;4.446;2023-06-14T08:32:01;15.07;;;7.57;;
23782;SDS011;12071;50.850;4.446;2023-06-14T08:34:27;15.57;;;7.20;;
23782;SDS011;12071;50.850;4.446;2023-06-14T08:36:52;10.90;;;6.88;;
23782;SDS011;12071;50.850;4.446;2023-06-14T08:39:18;11.20;;;7.18;;
23782;SDS011;12071;50.850;4.446;2023-06-14T08:41:46;7.75;;;6.50;;
23782;SDS011;12071;50.850;4.446;2023-06-14T08:44:15;13.15;;;6.82;;
23782;SDS011;12071;50.850;4.446;2023-06-14T08:46:42;12.43;;;6.72;;
23782;SDS011;12071;50.850;4.446;2023-06-14T08:49:08;9.30;;;6.78;;
23782;SDS011;12071;50.850;4.446;2023-06-14T08:51:37;8.55;;;6.57;;
23782;SDS011;12071;50.850;4.446;2023-06-14T08:54:03;11.27;;;7.07;;
23782;SDS011;12071;50.850;4.446;2023-06-14T08:56:29;11.45;;;6.80;;
23782;SDS011;12071;50.850;4.446;2023-06-14T08:58:56;12.88;;;7.20;;
23782;SDS011;12071;50.850;4.446;2023-06-14T09:01:27;10.98;;;7.43;;
23782;SDS011;12071;50.850;4.446;2023-06-14T09:03:54;15.13;;;6.55;;
23782;SDS011;12071;50.850;4.446;2023-06-14T09:06:23;10.88;;;6.05;;
23782;SDS011;12071;50.850;4.446;2023-06-14T09:08:49;10.88;;;7.00;;
23782;SDS011;12071;50.850;4.446;2023-06-14T09:11:16;11.25;;;6.40;;
23782;SDS011;12071;50.850;4.446;2023-06-14T09:13:44;12.50;;;7.03;;
23782;SDS011;12071;50.850;4.446;2023-06-14T09:16:14;11.00;;;7.32;;
23782;SDS011;12071;50.850;4.446;2023-06-14T09:18:42;8.48;;;6.50;;
23782;SDS011;12071;50.850;4.446;2023-06-14T09:21:11;15.25;;;7.13;;
23782;SDS011;12071;50.850;4.446;2023-06-14T09:23:38;13.95;;;7.07;;
23782;SDS011;12071;50.850;4.446;2023-06-14T09:26:09;15.77;;;7.03;;
23782;SDS011;12071;50.850;4.446;2023-06-14T09:28:41;14.63;;;6.45;;
23782;SDS011;12071;50.850;4.446;2023-06-14T09:31:12;7.90;;;6.15;;
23782;SDS011;12071;50.850;4.446;2023-06-14T09:33:38;11.52;;;6.50;;
23782;SDS011;12071;50.850;4.446;2023-06-14T09:36:11;8.35;;;5.93;;
23782;SDS011;12071;50.850;4.446;2023-06-14T09:38:41;12.00;;;6.85;;
23782;SDS011;12071;50.850;4.446;2023-06-14T09:41:06;6.63;;;5.90;;
23782;SDS011;12071;50.850;4.446;2023-06-14T09:43:32;12.32;;;6.55;;
23782;SDS011;12071;50.850;4.446;2023-06-14T09:46:00;10.77;;;6.15;;
23782;SDS011;12071;50.850;4.446;2023-06-14T09:48:28;13.20;;;6.60;;
23782;SDS011;12071;50.850;4.446;2023-06-14T09:50:55;7.78;;;5.97;;
23782;SDS011;12071;50.850;4.446;2023-06-14T09:53:24;9.73;;;6.18;;
23782;SDS011;12071;50.850;4.446;2023-06-14T09:55:51;16.00;;;6.88;;
23782;SDS011;12071;50.850;4.446;2023-06-14T09:58:20;12.93;;;6.03;;
23782;SDS011;12071;50.850;4.446;2023-06-14T10:00:47;18.27;;;7.15;;
23782;SDS011;12071;50.850;4.446;2023-06-14T10:03:20;11.88;;;6.03;;
23782;SDS011;12071;50.850;4.446;2023-06-14T10:05:49;12.80;;;6.30;;
23782;SDS011;12071;50.850;4.446;2023-06-14T10:08:17;11.20;;;6.22;;
23782;SDS011;12071;50.850;4.446;2023-06-14T10:10:45;16.73;;;6.95;;
23782;SDS011;12071;50.850;4.446;2023-06-14T10:13:11;21.13;;;6.68;;
23782;SDS011;12071;50.850;4.446;2023-06-14T10:18:31;10.10;;;6.35;;
23782;SDS011;12071;50.850;4.446;2023-06-14T10:23:59;12.25;;;6.68;;
23782;SDS011;12071;50.850;4.446;2023-06-14T10:26:30;10.05;;;6.30;;
23782;SDS011;12071;50.850;4.446;2023-06-14T10:28:56;11.68;;;6.50;;
23782;SDS011;12071;50.850;4.446;2023-06-14T10:31:30;10.50;;;6.00;;
23782;SDS011;12071;50.850;4.446;2023-06-14T10:34:08;10.68;;;5.75;;
23782;SDS011;12071;50.850;4.446;2023-06-14T10:36:34;10.30;;;6.10;;
23782;SDS011;12071;50.850;4.446;2023-06-14T10:39:01;10.70;;;5.93;;
23782;SDS011;12071;50.850;4.446;2023-06-14T10:41:39;9.90;;;5.72;;
23782;SDS011;12071;50.850;4.446;2023-06-14T10:46:37;9.20;;;5.38;;
23782;SDS011;12071;50.850;4.446;2023-06-14T10:49:03;14.20;;;5.30;;
23782;SDS011;12071;50.850;4.446;2023-06-14T10:51:30;10.68;;;5.30;;
23782;SDS011;12071;50.850;4.446;2023-06-14T10:54:14;9.27;;;5.60;;
23782;SDS011;12071;50.850;4.446;2023-06-14T10:56:47;10.13;;;6.32;;
23782;SDS011;12071;50.850;4.446;2023-06-14T10:59:16;6.95;;;4.78;;
23782;SDS011;12071;50.850;4.446;2023-06-14T11:04:46;9.38;;;5.40;;
23782;SDS011;12071;50.850;4.446;2023-06-14T11:13:08;8.30;;;5.28;;
23782;SDS011;12071;50.850;4.446;2023-06-14T11:15:35;13.95;;;5.78;;
23782;SDS011;12071;50.850;4.446;2023-06-14T11:18:02;7.82;;;5.30;;
23782;SDS011;12071;50.850;4.446;2023-06-14T11:20:30;16.20;;;5.10;;
23782;SDS011;12071;50.850;4.446;2023-06-14T11:22:57;10.27;;;4.85;;
23782;SDS011;12071;50.850;4.446;2023-06-14T11:25:24;7.85;;;4.97;;
23782;SDS011;12071;50.850;4.446;2023-06-14T11:27:50;8.18;;;4.68;;
23782;SDS011;12071;50.850;4.446;2023-06-14T11:30:16;9.10;;;4.90;;
23782;SDS011;12071;50.850;4.446;2023-06-14T11:32:42;10.48;;;5.28;;
23782;SDS011;12071;50.850;4.446;2023-06-14T11:35:08;8.27;;;5.25;;
23782;SDS011;12071;50.850;4.446;2023-06-14T11:37:35;11.82;;;5.20;;
23782;SDS011;12071;50.850;4.446;2023-06-14T11:40:02;12.65;;;5.20;;
23782;SDS011;12071;50.850;4.446;2023-06-14T11:42:33;10.10;;;5.20;;
23782;SDS011;12071;50.850;4.446;2023-06-14T11:44:59;8.43;;;5.07;;
23782;SDS011;12071;50.850;4.446;2023-06-14T11:47:24;11.40;;;5.38;;
23782;SDS011;12071;50.850;4.446;2023-06-14T11:49:58;14.10;;;5.03;;
23782;SDS011;12071;50.850;4.446;2023-06-14T11:52:24;9.05;;;5.13;;
23782;SDS011;12071;50.850;4.446;2023-06-14T11:54:49;9.15;;;4.85;;
23782;SDS011;12071;50.850;4.446;2023-06-14T11:57:15;9.05;;;5.05;;
23782;SDS011;12071;50.850;4.446;2023-06-14T11:59:43;8.98;;;4.32;;
23782;SDS011;12071;50.850;4.446;2023-06-14T12:02:09;7.40;;;4.88;;
23782;SDS011;12071;50.850;4.446;2023-06-14T12:04:43;6.60;;;4.72;;
23782;SDS011;12071;50.850;4.446;2023-06-14T12:07:10;14.57;;;4.77;;
23782;SDS011;12071;50.850;4.446;2023-06-14T12:09:39;9.65;;;4.40;;
23782;SDS011;12071;50.850;4.446;2023-06-14T12:12:05;8.75;;;4.47;;
23782;SDS011;12071;50.850;4.446;2023-06-14T12:14:33;7.97;;;4.85;;
23782;SDS011;12071;50.850;4.446;2023-06-14T12:17:05;12.25;;;4.43;;
23782;SDS011;12071;50.850;4.446;2023-06-14T12:19:33;8.65;;;4.65;;
23782;SDS011;12071;50.850;4.446;2023-06-14T12:22:07;9.38;;;4.53;;
23782;SDS011;12071;50.850;4.446;2023-06-14T12:24:38;11.82;;;4.30;;
23782;SDS011;12071;50.850;4.446;2023-06-14T12:27:04;10.30;;;4.90;;
23782;SDS011;12071;50.850;4.446;2023-06-14T12:29:31;6.38;;;4.68;;
23782;SDS011;12071;50.850;4.446;2023-06-14T12:31:57;10.98;;;4.35;;
23782;SDS011;12071;50.850;4.446;2023-06-14T12:34:23;9.60;;;4.07;;
23782;SDS011;12071;50.850;4.446;2023-06-14T12:36:52;7.80;;;4.75;;
23782;SDS011;12071;50.850;4.446;2023-06-14T12:39:21;9.38;;;4.68;;
23782;SDS011;12071;50.850;4.446;2023-06-14T12:41:47;7.82;;;4.63;;
23782;SDS011;12071;50.850;4.446;2023-06-14T12:44:13;13.65;;;4.70;;
23782;SDS011;12071;50.850;4.446;2023-06-14T12:46:40;8.13;;;4.30;;
23782;SDS011;12071;50.850;4.446;2023-06-14T12:49:10;11.27;;;4.32;;
23782;SDS011;12071;50.850;4.446;2023-06-14T12:51:37;7.20;;;4.03;;
23782;SDS011;12071;50.850;4.446;2023-06-14T12:54:05;7.45;;;4.22;;
23782;SDS011;12071;50.850;4.446;2023-06-14T12:56:31;7.53;;;4.00;;
23782;SDS011;12071;50.850;4.446;2023-06-14T12:58:57;6.68;;;4.32;;
23782;SDS011;12071;50.850;4.446;2023-06-14T13:01:24;7.60;;;3.83;;
23782;SDS011;12071;50.850;4.446;2023-06-14T13:03:49;7.20;;;3.80;;
23782;SDS011;12071;50.850;4.446;2023-06-14T13:06:16;8.73;;;4.43;;
23782;SDS011;12071;50.850;4.446;2023-06-14T13:08:44;10.32;;;3.78;;
23782;SDS011;12071;50.850;4.446;2023-06-14T13:11:09;10.23;;;3.92;;
23782;SDS011;12071;50.850;4.446;2023-06-14T13:13:35;10.25;;;3.70;;
23782;SDS011;12071;50.850;4.446;2023-06-14T13:16:00;6.28;;;3.67;;
23782;SDS011;12071;50.850;4.446;2023-06-14T13:18:26;4.82;;;3.78;;
23782;SDS011;12071;50.850;4.446;2023-06-14T13:20:52;7.43;;;3.65;;
23782;SDS011;12071;50.850;4.446;2023-06-14T13:23:17;4.22;;;3.80;;
23782;SDS011;12071;50.850;4.446;2023-06-14T13:25:43;8.88;;;3.78;;
23782;SDS011;12071;50.850;4.446;2023-06-14T13:28:08;11.35;;;3.80;;
23782;SDS011;12071;50.850;4.446;2023-06-14T13:30:34;9.00;;;3.45;;
23782;SDS011;12071;50.850;4.446;2023-06-14T13:33:00;10.95;;;3.70;;
23782;SDS011;12071;50.850;4.446;2023-06-14T13:35:26;8.00;;;3.83;;
23782;SDS011;12071;50.850;4.446;2023-06-14T13:37:52;6.72;;;3.50;;
23782;SDS011;12071;50.850;4.446;2023-06-14T13:40:17;6.90;;;3.20;;
23782;SDS011;12071;50.850;4.446;2023-06-14T13:42:43;7.35;;;3.40;;
23782;SDS011;12071;50.850;4.446;2023-06-14T13:45:10;6.82;;;3.00;;
23782;SDS011;12071;50.850;4.446;2023-06-14T13:47:36;6.82;;;2.72;;
23782;SDS011;12071;50.850;4.446;2023-06-14T13:50:03;4.47;;;3.20;;
23782;SDS011;12071;50.850;4.446;2023-06-14T13:52:29;9.13;;;3.20;;
23782;SDS011;12071;50.850;4.446;2023-06-14T13:54:54;4.28;;;3.15;;
23782;SDS011;12071;50.850;4.446;2023-06-14T13:57:20;6.55;;;3.00;;
23782;SDS011;12071;50.850;4.446;2023-06-14T13:59:46;5.45;;;2.80;;
23782;SDS011;12071;50.850;4.446;2023-06-14T14:02:11;7.03;;;3.10;;
23782;SDS011;12071;50.850;4.446;2023-06-14T14:04:37;8.20;;;2.80;;
23782;SDS011;12071;50.850;4.446;2023-06-14T14:07:04;5.78;;;2.50;;
23782;SDS011;12071;50.850;4.446;2023-06-14T14:09:31;4.57;;;2.67;;
23782;SDS011;12071;50.850;4.446;2023-06-14T14:11:57;8.50;;;2.80;;
23782;SDS011;12071;50.850;4.446;2023-06-14T14:14:23;3.65;;;2.53;;
23782;SDS011;12071;50.850;4.446;2023-06-14T14:16:50;4.88;;;2.55;;
23782;SDS011;12071;50.850;4.446;2023-06-14T14:19:19;6.25;;;2.45;;
23782;SDS011;12071;50.850;4.446;2023-06-14T14:21:46;5.20;;;2.05;;
23782;SDS011;12071;50.850;4.446;2023-06-14T14:24:11;4.70;;;2.08;;
23782;SDS011;12071;50.850;4.446;2023-06-14T14:26:37;3.42;;;2.20;;
23782;SDS011;12071;50.850;4.446;2023-06-14T14:29:03;4.72;;;1.98;;
23782;SDS011;12071;50.850;4.446;2023-06-14T14:31:28;4.07;;;1.83;;
23782;SDS011;12071;50.850;4.446;2023-06-14T14:33:54;3.35;;;1.80;;
23782;SDS011;12071;50.850;4.446;2023-06-14T14:36:20;5.78;;;2.40;;
23782;SDS011;12071;50.850;4.446;2023-06-14T14:38:45;5.40;;;1.90;;
23782;SDS011;12071;50.850;4.446;2023-06-14T14:41:12;3.33;;;1.80;;
23782;SDS011;12071;50.850;4.446;2023-06-14T14:43:37;7.60;;;2.30;;
23782;SDS011;12071;50.850;4.446;2023-06-14T14:46:03;6.25;;;1.92;;
23782;SDS011;12071;50.850;4.446;2023-06-14T14:48:29;3.83;;;1.80;;
23782;SDS011;12071;50.850;4.446;2023-06-14T14:50:54;2.90;;;1.70;;
23782;SDS011;12071;50.850;4.446;2023-06-14T14:53:20;5.10;;;2.00;;
23782;SDS011;12071;50.850;4.446;2023-06-14T14:55:45;5.25;;;1.77;;
23782;SDS011;12071;50.850;4.446;2023-06-14T14:58:11;3.55;;;2.00;;
23782;SDS011;12071;50.850;4.446;2023-06-14T15:00:37;4.30;;;1.90;;
23782;SDS011;12071;50.850;4.446;2023-06-14T15:03:03;2.03;;;1.75;;
23782;SDS011;12071;50.850;4.446;2023-06-14T15:05:29;5.63;;;1.65;;
23782;SDS011;12071;50.850;4.446;2023-06-14T15:07:54;4.75;;;1.85;;
23782;SDS011;12071;50.850;4.446;2023-06-14T15:10:20;6.05;;;2.17;;
23782;SDS011;12071;50.850;4.446;2023-06-14T15:12:46;3.10;;;1.98;;
23782;SDS011;12071;50.850;4.446;2023-06-14T15:15:11;3.42;;;2.30;;